AirNav   TITAN Aviation Fuels
 
 1072 users online  

4CO3 Griffin Field Airport
Walsh, Colorado, USA

GOING TO WALSH?


FAA INFORMATION EFFECTIVE 02 DECEMBER 2021

Location

FAA Identifier: 4CO3
Lat/Long: 37-23-30.0570N 102-16-46.6630W
37-23.500950N 102-16.777717W
37.3916825,-102.2796286
(estimated)
Elevation: 3964 ft. / 1208.2 m (surveyed)
Variation: 10E (1985)
From city: 1 mile N of WALSH, CO
Time zone: UTC -7 (UTC -6 during Daylight Saving Time)
Zip code: 81090

Airport Operations

Airport use: Private use. Permission required prior to landing
Activation date: 09/1945
Control tower: no
ARTCC: KANSAS CITY CENTER
FSS: DENVER FLIGHT SERVICE STATION
Attendance: UNATNDD
Wind indicator: yes
Segmented circle: no

Airport Services

Fuel available: 100LL
Parking: hangars
Airframe service: NONE
Powerplant service: NONE
Bottled oxygen: NONE
Bulk oxygen: NONE

Runway Information

Runway 17/35

Dimensions: 3200 x 100 ft. / 975 x 30 m
Surface: turf
Operational restrictions: LAND RY 17; DEP RY 35 WITH WIND LESS THAN 10 MPH.
RUNWAY 17  RUNWAY 35
Traffic pattern: leftleft
Obstructions: none30 ft. equip, 50 ft. from runway

Airport Ownership and Management from official FAA records

Ownership: Privately-owned
Owner: STEPHEN COGBURN
PO BOX 219
WALSH, CO 81090
Phone 719-324-5534
Manager: STEPHENCOGBURN
PO BOX 219
WALSH, CO 81090
Phone 719-324-5838

Airport Operational Statistics

Aircraft based on the field: 4
Single engine airplanes: 4
    

Additional Remarks

RY 35 HAS RR TRACKS; SILO & EQUIPMENT LOCATED NEAR APCH AREA.
CROP DUSTERS OPERATING FROM ARPT.
FOR CD CTC KANSAS CITY ARTCC AT 913-254-8508.

Instrument Procedures

There are no published instrument procedures at 4CO3.

Some nearby airports with instrument procedures:

8V7 - Springfield Municipal Airport (17 nm W)
KJHN - Stanton County Municipal Airport (29 nm NE)
KEHA - Elkhart-Morton County Airport (30 nm SE)
17K - Boise City Airport (39 nm S)
3K3 - Syracuse-Hamilton County Municipal Airport (44 nm NE)
 
Loc | Ops | Rwys | IFR | FBO | Links
Com | Nav | Svcs | Stats | Notes

AirBoss

 
Area around 4CO3 (Griffin Field Airport)
 
Road maps at: MapQuest Bing Google
 
Aerial photo
No photo
 
Sectional chart

 
Airport distance calculator
Flying to Griffin Field Airport? Find the distance to fly.

From to 4CO3

Sunrise and sunset
Times for 04-Dec-2021
 Local
(UTC-7)
 Zulu
(UTC)
Morning civil twilight06:2013:20
Sunrise06:4913:49
Sunset16:3023:30
Evening civil twilight16:5923:59

Current date and time
Zulu (UTC)  04-Dec-2021 15:20:45
Local (UTC-7)  04-Dec-2021 08:20:45
 
METAR
KSPD 
17nm W 
041456Z AUTO 24004KT 00/M04 A3021 RMK AO1 SLP234 T00001044 51008
KJHN 
29nm NE 
041455Z AUTO 29005KT 10SM CLR 00/M04 A3023 RMK AO2 6//// T10051038 PNO
KEHA 
30nm SE 
041455Z AUTO 29005KT 10SM CLR 01/M04 A3026 RMK AO2 T00051037
TAF
NOTAMs
Click for the latest NOTAMs
NOTAMs are issued by the DoD/FAA and will open in a separate window not controlled by AirNav.

 

 
 

Would you like to see your business listed on this page?

 If your business provides an interesting product or service to pilots, flight crews, aircraft, or users of the Griffin Field Airport, you should consider listing it here.  To start the listing process, click on the button below
 
Add a business
 

Other Pages about Griffin Field Airport

Update a link
 
Copyright © AirNav, LLC. All rights reserved. Privacy Policy  Contact